Latest Weather Observations for Walpole North

IDW60801

Issued at 7:03 am WST Thursday 25 May 2017 (issued every 30 minutes, with the page automatically refreshed every 10 minutes)

About weather observations | Map of weather stations | Latest weather observations for WA | Other Formats
Station Details ID: 009998 Name: NORTH WALPOLE Lat: -34.95 Lon: 116.72 Height: 73.0 m
Data from the previous 72 hours. | See also: Recent months at Walpole North
Date/Time
WST
Temp
°C
App
Temp
°C
Dew
Point
°C
Rel
Hum
%
Delta-T
°C
Wind Press
QNH
hPa
Press
MSL
hPa
Rain since
9am
mm
Dir  Spd
km/h
Gust
km/h
Spd
kts
Gust
kts
25/07:00am 13.6 11.7 11.7 88 1.0 NNW 13 22 7 12 1019.1 1019.1 0.4
25/06:30am 13.5 11.7 12.1 91 0.8 NNW 13 20 7 11 1018.9 1018.9 0.4
25/06:00am 12.6 11.3 11.3 92 0.7 NW 9 17 5 9 1018.8 1018.8 0.4
25/05:30am 12.7 12.3 11.1 90 0.8 NNW 4 11 2 6 1018.8 1018.8 0.4
25/05:00am 13.5 12.3 11.6 88 1.0 NNW 9 15 5 8 1018.6 1018.6 0.4
25/04:30am 13.8 11.5 11.8 88 1.1 NNW 15 24 8 13 1018.5 1018.5 0.4
25/04:00am 13.9 11.8 12.3 90 0.9 NNW 15 24 8 13 1018.8 1018.8 0.4
25/03:30am 13.6 12.0 12.7 94 0.5 NNW 13 22 7 12 1018.9 1018.9 0.4
25/03:00am 13.2 12.0 12.9 98 0.2 NNW 11 17 6 9 1019.1 1019.1 0.4
25/02:30am 13.0 12.2 12.8 99 0.1 NNW 9 19 5 10 1019.2 1019.2 0.4
25/02:00am 12.7 12.2 12.5 99 0.1 NW 7 15 4 8 1019.2 1019.2 0.4
25/01:30am 12.9 12.0 12.7 99 0.1 NNW 9 15 5 8 1019.4 1019.4 0.4
25/01:00am 12.8 12.0 12.8 100 0.0 NNW 9 11 5 6 1019.5 1019.5 0.4
25/12:30am 12.8 12.0 12.8 100 0.0 NW 9 19 5 10 1019.9 1019.8 0.4
25/12:00am 12.7 11.8 12.7 100 0.0 NNW 9 15 5 8 1020.0 1019.9 0.4
 
Date/Time
WST
Temp
°C
App
Temp
°C
Dew
Point
°C
Rel
Hum
%
Delta-T
°C
Wind Press
QNH
hPa
Press
MSL
hPa
Rain since
9am
mm
Dir  Spd
km/h
Gust
km/h
Spd
kts
Gust
kts
24/11:30pm 11.4 10.5 11.4 100 0.0 NNW 7 11 4 6 1020.0 1019.9 0.4
24/11:00pm 11.6 12.1 11.6 100 0.0 CALM 0 0 0 0 1020.4 1020.3 0.4
24/10:30pm 11.4 11.8 11.2 99 0.1 CALM 0 0 0 0 1020.5 1020.4 0.4
24/10:00pm 11.6 12.0 11.4 99 0.1 CALM 0 0 0 0 1020.7 1020.6 0.4
24/09:30pm 11.8 12.3 11.6 99 0.1 CALM 0 0 0 0 1020.7 1020.6 0.4
24/09:00pm 12.3 13.0 12.1 99 0.1 CALM 0 0 0 0 1020.7 1020.6 0.4
24/08:30pm 12.4 13.1 12.2 99 0.1 CALM 0 0 0 0 1020.6 1020.5 0.4
24/08:00pm 12.7 13.5 12.5 99 0.1 CALM 0 0 0 0 1020.4 1020.3 0.4
24/07:30pm 13.5 12.1 13.3 99 0.1 NNW 13 17 7 9 1020.2 1020.1 0.4
24/07:00pm 13.5 12.5 13.3 99 0.1 NNW 11 15 6 8 1020.3 1020.2 0.4
24/06:30pm 13.4 12.7 13.2 99 0.1 NNW 9 13 5 7 1020.3 1020.2 0.4
24/06:00pm 13.6 12.9 13.1 97 0.3 NW 9 13 5 7 1019.9 1019.8 0.4
24/05:30pm 13.9 12.3 12.8 93 0.6 NW 13 17 7 9 1019.5 1019.5 0.2
24/05:00pm 14.6 12.2 12.8 89 1.0 NW 17 20 9 11 1019.3 1019.3 0.2
24/04:30pm 15.4 13.1 12.9 85 1.4 WNW 17 26 9 14 1019.3 1019.3 0.2
24/04:00pm 15.4 13.6 13.2 87 1.2 WNW 15 26 8 14 1019.0 1019.0 0.2
24/03:30pm 15.9 15.6 14.3 90 0.9 WNW 9 13 5 7 1018.8 1018.8 0.2
24/03:00pm 15.4 13.8 13.9 91 0.8 WNW 15 20 8 11 1018.9 1018.9 0.2
24/02:30pm 15.5 13.8 12.4 82 1.7 W 13 22 7 12 1018.7 1018.7 0.2
24/02:00pm 15.8 13.8 11.4 75 2.4 W 13 22 7 12 1018.7 1018.7 0.2
24/01:30pm 17.2 15.1 11.0 67 3.3 W 13 20 7 11 1018.5 1018.5 0.2
24/01:00pm 17.6 15.1 11.2 66 3.5 W 15 22 8 12 1018.7 1018.7 0.2
24/12:30pm 17.3 13.9 10.4 64 3.7 WNW 19 35 10 19 1018.7 1018.7 0.2
24/12:00pm 17.1 14.6 10.9 67 3.3 W 15 30 8 16 1019.0 1019.0 0.2
24/11:30am 16.9 14.5 12.6 76 2.4 WNW 17 22 9 12 1019.3 1019.3 0.2
24/11:00am 16.2 14.9 13.7 85 1.4 WNW 13 20 7 11 1019.5 1019.5 0.0
24/10:30am 15.2 13.7 14.2 94 0.6 NW 15 20 8 11 1019.5 1019.5 0.0
24/10:00am 14.0 12.6 13.5 97 0.3 NW 13 20 7 11 1019.7 1019.7 0.0
24/09:30am 13.7 11.9 13.2 97 0.3 NW 15 20 8 11 1019.6 1019.6 0.0
24/09:00am 13.6 11.4 13.4 99 0.1 NW 17 24 9 13 1019.7 1019.7 7.2
24/08:30am 12.7 9.9 12.5 99 0.1 NW 19 24 10 13 1019.5 1019.5 7.2
24/08:00am 12.6 10.9 12.4 99 0.1 NW 13 20 7 11 1019.5 1019.5 7.2
24/07:30am 12.5 10.8 12.3 99 0.1 NW 13 15 7 8 1019.1 1019.1 7.2
24/07:00am 12.3 10.9 12.1 99 0.1 NW 11 15 6 8 1018.8 1018.8 7.2
24/06:30am 12.8 11.1 12.6 99 0.1 WNW 13 20 7 11 1018.7 1018.7 7.0
24/06:00am 12.7 11.0 12.5 99 0.1 NW 13 19 7 10 1018.3 1018.3 7.0
24/05:30am 13.1 10.4 12.9 99 0.1 NNW 19 24 10 13 1018.0 1018.0 7.0
24/05:00am 13.3 10.7 13.3 100 0.0 NW 19 22 10 12 1018.2 1018.2 7.0
24/04:30am 13.0 12.2 13.0 100 0.0 W 9 13 5 7 1018.2 1018.2 7.0
24/04:00am 13.3 11.5 13.3 100 0.0 NW 15 20 8 11 1017.8 1017.8 7.0
24/03:30am 13.3 12.3 13.3 100 0.0 NW 11 15 6 8 1018.0 1018.0 7.0
24/03:00am 13.7 12.0 13.7 100 0.0 NW 15 17 8 9 1018.0 1018.0 7.0
24/02:30am 13.7 12.4 13.7 100 0.0 NW 13 19 7 10 1018.0 1018.0 7.0
24/02:00am 14.3 12.8 14.3 100 0.0 NW 15 20 8 11 1018.1 1018.1 7.0
24/01:30am 14.3 12.8 14.3 100 0.0 NW 15 22 8 12 1018.2 1018.2 6.8
24/01:00am 14.5 13.1 14.5 100 0.0 NW 15 22 8 12 1018.3 1018.3 6.2
24/12:30am 14.4 13.0 14.4 100 0.0 NW 15 20 8 11 1018.3 1018.3 5.0
24/12:00am 14.5 12.3 14.5 100 0.0 NW 19 28 10 15 1018.3 1018.3 4.6
 
Date/Time
WST
Temp
°C
App
Temp
°C
Dew
Point
°C
Rel
Hum
%
Delta-T
°C
Wind Press
QNH
hPa
Press
MSL
hPa
Rain since
9am
mm
Dir  Spd
km/h
Gust
km/h
Spd
kts
Gust
kts
23/11:30pm 14.4 12.2 14.4 100 0.0 NW 19 28 10 15 1018.6 1018.6 4.0
23/11:00pm 14.3 12.8 14.3 100 0.0 NW 15 20 8 11 1018.7 1018.7 3.8
23/10:30pm 14.3 12.4 14.3 100 0.0 NW 17 24 9 13 1018.8 1018.8 3.6
23/10:00pm 14.3 13.2 14.3 100 0.0 NNW 13 20 7 11 1019.0 1019.0 3.6
23/09:30pm 14.3 13.2 14.3 100 0.0 NW 13 17 7 9 1019.0 1019.0 3.6
23/09:00pm 14.5 13.5 14.5 100 0.0 NW 13 20 7 11 1019.1 1019.1 3.6
23/08:30pm 14.1 15.0 14.1 100 0.0 WNW 2 9 1 5 1019.1 1019.1 3.4
23/08:00pm 14.4 14.1 14.4 100 0.0 NW 9 11 5 6 1019.2 1019.2 3.4
23/07:30pm 14.6 14.0 14.6 100 0.0 NNW 11 17 6 9 1019.3 1019.3 3.4
23/07:00pm 14.9 14.8 14.9 100 0.0 NW 9 13 5 7 1019.5 1019.5 3.2
23/06:30pm 15.0 14.5 15.0 100 0.0 WNW 11 15 6 8 1019.5 1019.5 3.0
23/06:00pm 15.1 14.3 15.1 100 0.0 WNW 13 17 7 9 1019.3 1019.3 2.8
23/05:30pm 15.2 14.8 15.2 100 0.0 WNW 11 17 6 9 1019.1 1019.1 2.8
23/05:00pm 15.3 13.8 15.3 100 0.0 WNW 17 24 9 13 1018.9 1018.9 2.8
23/04:30pm 15.6 14.9 15.4 99 0.1 WNW 13 24 7 13 1018.9 1018.9 1.6
23/04:00pm 15.8 15.2 15.6 99 0.1 W 13 22 7 12 1018.8 1018.8 1.2
23/03:30pm 16.1 15.6 15.9 99 0.1 WNW 13 20 7 11 1018.6 1018.6 1.2
23/03:00pm 16.3 16.1 15.7 96 0.4 WNW 11 15 6 8 1018.5 1018.5 1.2
23/02:30pm 16.6 15.8 16.0 96 0.4 WNW 15 20 8 11 1018.3 1018.3 0.8
23/02:00pm 17.0 16.3 16.5 97 0.3 WNW 15 20 8 11 1018.5 1018.5 0.6
23/01:30pm 16.6 15.8 15.1 91 0.9 WSW 13 20 7 11 1018.5 1018.5 0.6
23/01:00pm 16.7 15.6 15.2 91 0.9 WNW 15 22 8 12 1018.7 1018.7 0.2
23/12:30pm 16.5 15.7 16.0 97 0.3 W 15 22 8 12 1018.8 1018.8 0.2
23/12:00pm 16.7 14.7 15.6 93 0.6 NW 20 28 11 15 1019.1 1019.1 0.2
23/11:30am 16.7 16.0 16.5 99 0.1 NW 15 20 8 11 1019.5 1019.5 0.2
23/11:00am 15.7 14.7 15.5 99 0.1 WNW 15 24 8 13 1020.0 1019.9 0.2
23/10:30am 15.6 14.6 15.6 100 0.0 WNW 15 19 8 10 1020.1 1020.0 0.2
23/10:00am 14.9 13.6 14.9 100 0.0 NW 15 20 8 11 1020.2 1020.1 0.2
23/09:30am 14.2 12.7 14.2 100 0.0 NW 15 20 8 11 1020.1 1020.0 0.2
23/09:00am 13.9 12.7 13.9 100 0.0 NW 13 19 7 10 1020.0 1019.9 4.8
23/08:30am 13.4 12.0 13.4 100 0.0 NW 13 20 7 11 1019.9 1019.8 4.8
23/08:00am 12.7 11.5 12.7 100 0.0 NW 11 17 6 9 1019.4 1019.4 4.8
23/07:30am 12.6 10.9 12.6 100 0.0 NNW 13 15 7 8 1019.1 1019.1 4.8
23/07:00am 12.7 11.1 12.7 100 0.0 NW 13 17 7 9 1019.0 1019.0 4.8
23/06:30am 12.7 11.0 12.5 99 0.1 NW 13 17 7 9 1018.8 1018.8 4.8
23/06:00am 12.8 10.4 12.6 99 0.1 NW 17 20 9 11 1018.5 1018.5 4.6
23/05:30am 12.0 10.5 11.8 99 0.1 NW 11 13 6 7 1018.4 1018.4 4.6
23/05:00am 12.7 11.4 12.4 98 0.2 WNW 11 20 6 11 1018.3 1018.3 4.6
23/04:30am 12.6 10.8 12.0 96 0.3 NW 13 20 7 11 1018.2 1018.2 4.2
23/04:00am 12.9 11.4 11.8 93 0.6 WNW 11 17 6 9 1018.4 1018.4 4.2
23/03:30am 12.9 11.4 12.0 94 0.5 NW 11 19 6 10 1018.1 1018.1 4.2
23/03:00am 13.1 11.0 12.3 95 0.4 WNW 15 22 8 12 1018.1 1018.1 4.2
23/02:30am 12.9 11.2 12.6 98 0.2 WNW 13 17 7 9 1018.0 1018.0 4.2
23/02:00am 12.7 11.0 12.5 99 0.1 NW 13 19 7 10 1018.0 1018.0 4.2
23/01:30am 12.8 11.1 12.6 99 0.1 WNW 13 20 7 11 1017.9 1017.9 4.2
23/01:00am 12.9 11.3 12.7 99 0.1 WNW 13 20 7 11 1018.0 1018.0 4.2
23/12:30am 12.9 10.1 12.7 99 0.1 NW 19 28 10 15 1017.9 1017.9 4.2
23/12:00am 12.8 9.8 12.6 99 0.1 NW 20 28 11 15 1018.0 1018.0 4.2
 
Date/Time
WST
Temp
°C
App
Temp
°C
Dew
Point
°C
Rel
Hum
%
Delta-T
°C
Wind Press
QNH
hPa
Press
MSL
hPa
Rain since
9am
mm
Dir  Spd
km/h
Gust
km/h
Spd
kts
Gust
kts
22/11:30pm 12.5 10.0 12.3 99 0.1 NW 17 24 9 13 1018.3 1018.3 4.2
22/11:00pm 12.6 9.7 12.4 99 0.1 WNW 19 26 10 14 1018.5 1018.5 4.0
22/10:30pm 12.6 10.1 12.4 99 0.1 WNW 17 24 9 13 1018.5 1018.5 4.0
22/10:00pm 12.8 10.7 12.3 97 0.3 WNW 15 20 8 11 1018.6 1018.6 3.4
22/09:30pm 13.0 10.0 12.4 96 0.3 NW 20 30 11 16 1018.4 1018.4 3.4
22/09:00pm 12.9 10.9 12.6 98 0.2 NW 15 20 8 11 1018.5 1018.5 3.4
22/08:30pm 12.8 10.8 12.6 99 0.1 NW 15 20 8 11 1018.4 1018.4 3.4
22/08:00pm 12.9 12.0 12.7 99 0.1 WNW 9 15 5 8 1018.4 1018.4 3.2
22/07:30pm 12.9 10.5 12.7 99 0.1 NW 17 24 9 13 1018.0 1018.0 3.0
22/07:00pm 12.8 10.4 12.6 99 0.1 NW 17 22 9 12 1017.8 1017.8 2.8
22/06:30pm 13.0 10.1 12.4 96 0.3 WNW 19 26 10 14 1017.8 1017.8 2.8
22/06:00pm 13.2 10.7 12.3 94 0.5 NW 17 24 9 13 1017.3 1017.3 2.4
22/05:30pm 13.4 11.1 11.8 90 0.9 NW 15 20 8 11 1017.0 1017.0 2.4
22/05:00pm 13.5 11.6 11.7 89 1.0 NW 13 17 7 9 1016.7 1016.7 2.4
22/04:30pm 14.1 11.1 10.7 80 1.8 NW 17 22 9 12 1016.6 1016.6 2.4
22/04:00pm 14.7 12.4 10.3 75 2.3 W 13 22 7 12 1016.3 1016.3 2.4
22/03:30pm 15.2 11.8 10.6 74 2.4 WSW 19 30 10 16 1016.1 1016.1 2.4
22/03:00pm 15.6 12.6 10.8 73 2.6 WSW 17 26 9 14 1015.8 1015.7 2.4
22/02:30pm 15.0 11.6 10.4 74 2.4 WSW 19 39 10 21 1015.8 1015.7 2.4
22/02:00pm 15.1 11.6 10.9 76 2.2 WSW 20 35 11 19 1015.4 1015.3 2.4
22/01:30pm 14.7 13.1 12.7 88 1.1 WNW 13 20 7 11 1015.2 1015.1 2.4
22/01:00pm 14.3 12.1 13.3 94 0.6 WSW 17 30 9 16 1015.2 1015.1 2.4
22/12:30pm 13.7 12.3 13.4 98 0.2 SW 13 26 7 14 1015.3 1015.2 2.4
22/12:00pm 13.4 11.9 13.2 99 0.1 WNW 13 20 7 11 1015.4 1015.3 2.4
22/11:30am 13.0 11.0 12.8 99 0.1 WNW 15 26 8 14 1015.6 1015.5 2.2
22/11:00am 12.9 10.3 12.1 95 0.4 NW 17 24 9 13 1015.7 1015.6 1.8
22/10:30am 13.4 12.1 11.3 87 1.1 SW 9 17 5 9 1015.6 1015.5 0.4
22/10:00am 12.9 10.6 10.4 85 1.3 NW 13 20 7 11 1015.5 1015.4 0.0
22/09:30am 12.8 10.0 8.7 76 2.1 NW 13 22 7 12 1015.5 1015.4 0.0
22/09:00am 13.3 10.9 8.6 73 2.4 W 11 17 6 9 1015.3 1015.2 3.4
22/08:30am 12.9 10.0 8.2 73 2.3 W 13 22 7 12 1015.1 1015.0 3.4
22/08:00am 12.4 8.9 7.3 71 2.5 W 15 20 8 11 1014.9 1014.8 3.4
22/07:30am 11.8 8.6 6.7 71 2.4 WSW 13 20 7 11 1014.6 1014.5 3.4

Other Formats:

Comma delimited format used in spreadsheet applications
http://www.bom.gov.au/fwo/IDW60801/IDW60801.95647.axf

JavaScript Object Notation format (JSON) in row-major order
http://www.bom.gov.au/fwo/IDW60801/IDW60801.95647.json